Calgary, Alberta

11:57 AM MDT on September 30, 2014 (GMT -0600)
Martindale | Change Station
CLOSE
Current Station
Personal Weather Station
Location: Calgary, ALBERTA
Elevation: 3557 ft
Nearby Weather Stations

Elev 3557 ft 51.11 °N, 113.97 °W | Updated 4 minutes ago

Overcast
Overcast
45.0 °F
Feels Like 39 °F
N
13.0
Wind Variable Wind from NNW

Today is forecast to be nearly the same temperature as yesterday.

Today
High -- | Low -- °F
--% Chance of Precip.
Yesterday
High -- | Low -- °F
Precip. -- in
7:35 AM 7:15 PM
Waxing Crescent, 38% visible
Pressure 29.83 in
Visibility 9.0 miles
Clouds Few 1800 ft
Overcast 5000 ft
Windchill 39 °F
Dew Point 42 °F
Humidity 88%
Rainfall 0.04 in
Snow Depth Not available.
UV 1 out of 12
Pollen Not available.
Air Quality Not available.
Flu Activity Not available.
SPECI CYBW 301735Z AUTO 35019G24KT 9SM FEW018 OVC050 08/04 A2976 RMK SLP101 DENSITY ALT 4100FT

More Conditions Fewer Conditions

Pressure 29.83 in
Visibility 9.0 miles
Clouds Few 1800 ft
Overcast 5000 ft
Windchill 39 °F
Dew Point 42 °F
Humidity 88%
Rainfall 0.04 in
Snow Depth Not available.
UV 1 out of 12
Pollen Not available.
Air Quality Not available.
Flu Activity Not available.
SPECI CYBW 301735Z AUTO 35019G24KT 9SM FEW018 OVC050 08/04 A2976 RMK SLP101 DENSITY ALT 4100FT

More Conditions Fewer Conditions

10-Day Weather Forecast

Almanac

Astronomy

Sep. 30, 2014 Rise Set
Actual Time 7:35 AM MDT 7:15 PM MDT
Civil Twilight 7:02 AM MDT 7:48 PM MDT
Nautical Twilight 6:23 AM MDT 8:27 PM MDT
Astronomical Twilight 5:44 AM MDT 9:06 PM MDT
Moon 2:17 PM MDT 11:19 PM MDT
Length of Visible Light 12h 46m
Length of Day
11h 40m
Tomorrow will be 3m 51s shorter.
Waxing Crescent, 38% of the Moon is Illuminated
Today
Waxing Crescent
Oct 1
First Quarter
Oct 8
Full
Oct 15
Last Quarter
Oct 23
New

Today's Extremes

Country Highs Country Lows

Community

WunderPhotos

Upload Photos

1,757,693 photos uploaded!

Nearby

Snow Depth

Not available.

Earthquake Activity

City Distance Mag. Time & Date
No recent earthquake activity has been reported nearby.
Minimum magnitude displayed is 2.5.

Coastal Water Temperatures

Place Temperature
No Stations Reporting

Nearby Weather Stations